Data for 10/02/2005

Time Sea-Level Adjusted Pressure Absolute Pressure Temperature Relative Humidity Dew Point   
(mb) (inHg) (mb) (inHg) (C) (F) (%) (C) (F)
00:05 1010 29.83 839 24.78 7 44.5 68 1.6 34.8
00:10 1010 29.83 839 24.78 7.1 44.9 68 1.7 35
00:15 1010 29.83 839 24.78 7.1 44.8 69 1.8 35.2
00:20 1010 29.83 839 24.78 7.1 44.7 68 1.6 34.8
00:25 1009 29.8 839 24.78 7.1 44.8 68 1.6 34.9
00:30 1009 29.8 839 24.78 7.1 44.9 68 1.6 34.9
00:35 1009 29.8 839 24.78 7.1 44.8 67 1.5 34.7
00:40 1009 29.8 839 24.78 7.1 44.8 67 1.5 34.7
00:45 1009 29.8 838 24.75 7.2 45 68 1.6 35
00:50 1009 29.8 838 24.75 7.1 44.8 67 1.4 34.6
00:55 1009 29.8 838 24.75 7.3 45.1 67 1.6 34.9
01:00 1009 29.8 838 24.75 7.4 45.2 67 1.6 34.9
01:05 1009 29.8 838 24.75 7.1 44.8 69 1.8 35.2
01:10 1009 29.8 838 24.75 7.2 44.9 67 1.4 34.6
01:15 1009 29.8 838 24.75 7.4 45.3 66 1.5 34.7
01:20 1008 29.77 838 24.75 7.3 45.1 67 1.7 35
01:25 1008 29.77 838 24.75 7.6 45.6 65 1.4 34.5
01:30 1009 29.8 838 24.75 7.9 46.3 63 1.4 34.6
01:35 1009 29.8 838 24.75 8 46.5 63 1.5 34.6
01:40 1009 29.8 838 24.75 8.1 46.5 63 1.6 34.8
01:45 1009 29.8 838 24.75 8 46.4 64 1.6 34.9
01:50 1009 29.8 838 24.75 8 46.3 64 1.6 34.9
01:55 1009 29.8 838 24.75 7.9 46.1 65 1.8 35.2
02:00 1008 29.77 838 24.75 7.6 45.6 67 1.8 35.2
02:05 1009 29.8 838 24.75 7.4 45.2 67 1.7 35
02:10 1009 29.8 838 24.75 7.3 45.1 67 1.5 34.8
02:15 1009 29.8 838 24.75 7.5 45.5 66 1.5 34.7
02:20 1009 29.8 838 24.75 7.8 46 65 1.6 34.8
02:25 1009 29.8 838 24.75 7.9 46.2 64 1.5 34.8
02:30 1009 29.8 838 24.75 7.7 45.8 65 1.5 34.6
02:35 1009 29.8 838 24.75 7.7 45.8 65 1.6 34.9
02:40 1009 29.8 839 24.78 7.5 45.4 66 1.6 34.9
02:45 1010 29.83 839 24.78 7.4 45.3 67 1.8 35.2
02:50 1010 29.83 839 24.78 7 44.7 70 2 35.6
02:55 1010 29.83 839 24.78 6.7 44 74 2.3 36.2
03:00 1010 29.83 839 24.78 6.4 43.5 76 2.5 36.5
03:05 1010 29.83 839 24.78 6.2 43.1 79 2.7 36.9
03:10 1010 29.83 839 24.78 5.9 42.7 81 2.9 37.2
03:15 1010 29.83 839 24.78 5.7 42.3 83 3 37.4
03:20 1010 29.83 839 24.78 5.7 42.3 81 2.8 37
03:25 1010 29.83 840 24.81 5.7 42.3 80 2.6 36.8
03:30 1010 29.83 840 24.81 5.6 42 81 2.6 36.6
03:35 1011 29.85 840 24.81 5.5 41.8 83 2.7 36.9
03:40 1011 29.85 840 24.81 5.3 41.6 83 2.6 36.7
03:45 1011 29.85 840 24.81 5.2 41.4 83 2.6 36.6
03:50 1011 29.85 840 24.81 5.1 41.2 84 2.7 36.8
03:55 1011 29.85 840 24.81 5 41 86 2.8 37.1
04:00 1011 29.85 840 24.81 4.8 40.7 89 3.1 37.5
04:05 1011 29.85 840 24.81 4.6 40.3 89 3 37.4
04:10 1011 29.85 840 24.81 4.3 39.8 92 3.1 37.7
04:15 1011 29.85 840 24.81 4.4 39.8 91 3 37.4
04:20 1012 29.88 841 24.83 4 39.2 92 2.8 37.1
04:25 1012 29.88 841 24.83 3.8 38.8 93 2.8 37
04:30 1012 29.88 841 24.83 3.7 38.7 93 2.8 37
04:35 1012 29.88 841 24.83 3.7 38.6 93 2.7 36.8
04:40 1011 29.85 841 24.83 3.6 38.5 92 2.5 36.5
04:45 1012 29.88 841 24.83 3.5 38.3 92 2.4 36.2
04:50 1012 29.88 841 24.83 3.3 37.9 91 2 35.6
04:55 1012 29.88 841 24.83 2.8 37.1 92 1.7 35
05:00 1012 29.88 841 24.83 2.4 36.4 93 1.5 34.6
05:05 1012 29.88 841 24.83 2.2 35.9 93 1.2 34.1
05:10 1012 29.88 841 24.83 1.6 34.8 94 0.7 33.2
05:15 1012 29.88 841 24.83 1.2 34.2 95 0.6 33
05:20 1012 29.88 841 24.83 1.1 34 96 0.5 32.9
05:25 1012 29.88 841 24.83 1.1 34 96 0.5 33
05:30 1012 29.88 841 24.83 1.2 34.1 96 0.6 33.1
05:35 1012 29.88 841 24.83 1.1 34 96 0.5 32.9
05:40 1012 29.88 841 24.83 1.2 34.1 96 0.5 33
05:45 1012 29.88 842 24.86 1.2 34.1 95 0.5 32.9
05:50 1012 29.88 842 24.86 1.1 34 95 0.4 32.7
05:55 1012 29.88 842 24.86 1.1 33.9 96 0.5 32.8
06:00 1012 29.88 842 24.86 1 33.8 96 0.4 32.7
06:05 1013 29.91 842 24.86 1 33.8 96 0.5 32.8
06:10 1013 29.91 842 24.86 1 33.9 96 0.4 32.8
06:15 1013 29.91 842 24.86 1.1 33.9 96 0.4 32.8
06:20 1013 29.91 842 24.86 0.9 33.7 96 0.3 32.5
06:25 1013 29.91 842 24.86 0.8 33.4 97 0.3 32.6
06:30 1013 29.91 842 24.86 0.6 33.1 97 0.2 32.3
06:35 1013 29.91 842 24.86 0.3 32.6 98 0.1 32.1
06:40 1013 29.91 842 24.86 0.3 32.5 99 0.1 32.1
06:45 1013 29.91 842 24.86 0.3 32.5 99 0.1 32.2
06:50 1013 29.91 842 24.86 0.2 32.4 99 0.1 32.3
06:55 1013 29.91 842 24.86 0.3 32.6 100 0.3 32.5
07:00 1013 29.91 842 24.86 0.6 33 99 0.4 32.8
07:05 1013 29.91 842 24.86 0.6 33.1 99 0.5 32.8
07:10 1013 29.91 842 24.86 0.6 33.1 99 0.5 32.9
07:15 1013 29.91 842 24.86 0.6 33.1 99 0.5 32.8
07:20 1013 29.91 842 24.86 0.6 33.1 99 0.4 32.8
07:25 1013 29.91 842 24.86 0.6 33.1 99 0.4 32.7
07:30 1013 29.91 842 24.86 0.7 33.2 99 0.5 33
07:35 1013 29.91 842 24.86 0.8 33.4 99 0.6 33.1
07:40 1013 29.91 842 24.86 0.8 33.4 98 0.5 33
07:45 1013 29.91 842 24.86 0.9 33.6 98 0.6 33.2
07:50 1013 29.91 842 24.86 1 33.8 98 0.7 33.3
07:55 1013 29.91 842 24.86 1.1 33.9 98 0.7 33.3
08:00 1013 29.91 842 24.86 1.1 33.9 97 0.7 33.3
08:05 1013 29.91 842 24.86 1.1 33.9 97 0.7 33.2
08:10 1014 29.94 843 24.89 1.1 33.9 97 0.7 33.3
08:15 1014 29.94 843 24.89 1.2 34.2 97 0.8 33.4
08:20 1013 29.91 843 24.89 1.2 34.2 96 0.7 33.2
08:25 1013 29.91 843 24.89 1.1 34.1 96 0.6 33.1
08:30 1014 29.94 843 24.89 1.1 34 97 0.7 33.2
08:35 1014 29.94 843 24.89 1.3 34.3 96 0.8 33.4
08:40 1014 29.94 843 24.89 1.4 34.5 96 0.8 33.5
08:45 1014 29.94 843 24.89 1.5 34.7 95 0.8 33.5
08:50 1014 29.94 843 24.89 1.5 34.7 95 0.7 33.3
08:55 1014 29.94 843 24.89 1.5 34.7 94 0.7 33.2
09:00 1014 29.94 843 24.89 1.4 34.6 95 0.7 33.3
09:05 1014 29.94 843 24.89 1.5 34.7 94 0.7 33.3
09:10 1014 29.94 844 24.92 1.5 34.7 95 0.8 33.4
09:15 1015 29.97 844 24.92 1.5 34.7 95 0.8 33.5
09:20 1014 29.94 844 24.92 1.6 34.8 94 0.8 33.4
09:25 1015 29.97 844 24.92 1.6 34.9 95 0.8 33.5
09:30 1015 29.97 844 24.92 1.6 34.9 94 0.8 33.5
09:35 1015 29.97 844 24.92 1.7 35 94 0.8 33.5
09:40 1015 29.97 844 24.92 1.6 34.9 94 0.7 33.3
09:45 1015 29.97 844 24.92 1.5 34.7 94 0.7 33.2
09:50 1015 29.97 844 24.92 1.5 34.6 95 0.7 33.2
09:55 1015 29.97 844 24.92 1.6 34.8 94 0.7 33.3
10:00 1015 29.97 844 24.92 1.6 34.9 94 0.7 33.3
10:05 1015 29.97 844 24.92 1.8 35.2 94 0.8 33.5
10:10 1015 29.97 844 24.92 1.8 35.2 93 0.8 33.4
10:15 1015 29.97 844 24.92 1.7 35.1 93 0.7 33.3
10:20 1015 29.97 844 24.92 1.7 35 93 0.6 33.1
10:25 1015 29.97 845 24.95 1.7 35 93 0.7 33.2
10:30 1015 29.97 845 24.95 1.7 35 94 0.7 33.3
10:35 1015 29.97 845 24.95 1.7 35.1 93 0.7 33.3
10:40 1015 29.97 845 24.95 1.9 35.3 91 0.6 33.1
10:45 1015 29.97 845 24.95 1.6 34.9 94 0.7 33.3
10:50 1016 30 845 24.95 1.3 34.4 95 0.7 33.2
10:55 1016 30 845 24.95 1.5 34.6 95 0.7 33.3
11:00 1016 30 845 24.95 1.6 34.9 95 0.9 33.5
11:05 1016 30 845 24.95 1.7 35.1 94 0.9 33.6
11:10 1016 30 845 24.95 1.7 35.1 94 0.9 33.6
11:15 1016 30 845 24.95 1.9 35.3 94 1 33.7
11:20 1016 30 845 24.95 2.1 35.7 92 0.9 33.7
11:25 1016 30 845 24.95 2.1 35.8 92 0.9 33.7
11:30 1016 30 845 24.95 2.2 35.9 92 1 33.9
11:35 1016 30 845 24.95 2.2 36 91 0.8 33.5
11:40 1016 30 845 24.95 2.5 36.5 89 0.9 33.6
11:45 1016 30 845 24.95 2.7 36.8 90 1.2 34.1
11:50 1016 30 845 24.95 3 37.3 87 1 33.8
11:55 1016 30 845 24.95 3 37.4 89 1.4 34.5
12:00 1016 30 845 24.95 3 37.4 89 1.4 34.5
12:05 1016 30 845 24.95 3.2 37.7 88 1.3 34.4
12:10 1016 30 845 24.95 3.2 37.8 87 1.2 34.2
12:15 1016 30 845 24.95 3.3 38 87 1.4 34.5
12:20 1016 30 845 24.95 3.4 38.2 86 1.4 34.5
12:25 1016 30 845 24.95 3.5 38.4 85 1.2 34.2
12:30 1016 30 846 24.98 3.7 38.7 82 1 33.8
12:35 1016 30 846 24.98 3.8 38.9 83 1.2 34.2
12:40 1016 30 846 24.98 4 39.3 83 1.4 34.4
12:45 1016 30 846 24.98 4.4 40 81 1.5 34.7
12:50 1016 30 846 24.98 4.5 40 82 1.7 35
12:55 1016 30 846 24.98 4.6 40.2 82 1.7 35
13:00 1016 30 846 24.98 4.6 40.3 80 1.4 34.5
13:05 1016 30 846 24.98 4.9 40.8 78 1.3 34.4
13:10 1016 30 846 24.98 5.2 41.4 74 1 33.7
13:15 1016 30 846 24.98 5.5 41.9 72 0.7 33.3
13:20 1016 30 846 24.98 6 42.9 68 0.6 33.1
13:25 1016 30 846 24.98 6.6 44 65 0.6 33
13:30 1016 30 846 24.98 7 44.7 64 0.8 33.4
13:35 1016 30 846 24.98 6.8 44.3 65 0.7 33.3
13:40 1016 30 845 24.95 7.7 45.9 60 0.4 32.8
13:45 1016 30 845 24.95 7.6 45.6 60 0.3 32.6
13:50 1016 30 845 24.95 7.3 45.2 65 1.2 34.1
13:55 1016 30 845 24.95 7.5 45.4 66 1.5 34.7
14:00 1016 30 845 24.95 7.9 46.2 59 0.3 32.6
14:05 1016 30 845 24.95 8 46.3 55 -0.6 30.9
14:10 1016 30 845 24.95 8.3 46.9 55 -0.3 31.5
14:15 1016 30 845 24.95 8.1 46.5 58 0.4 32.7
14:20 1016 30 845 24.95 7.7 45.8 58 -0.1 31.8
14:25 1016 30 845 24.95 7.5 45.6 60 0.3 32.5
14:30 1016 30 846 24.98 8.1 46.5 56 -0.3 31.5
14:35 1016 30 846 24.98 8.5 47.2 57 0.5 32.8
14:40 1016 30 846 24.98 9.2 48.6 53 0.3 32.5
14:45 1016 30 846 24.98 9.8 49.6 53 0.7 33.2
14:50 1016 30 846 24.98 9.6 49.3 53 0.7 33.2
14:55 1016 30 846 24.98 9.7 49.5 52 0.5 32.9
15:00 1016 30 846 24.98 9.6 49.3 51 -0 32
15:05 1016 30 846 24.98 9.5 49.1 51 -0 32
15:10 1016 30 846 24.98 9.5 49 54 0.6 33.1
15:15 1016 30 846 24.98 9.4 48.8 53 0.3 32.5
15:20 1016 30 846 24.98 9.8 49.6 50 -0.1 31.8
15:25 1016 30 845 24.95 10.4 50.8 46 -0.7 30.7
15:30 1016 30 845 24.95 9.6 49.3 49 -0.7 30.8
15:35 1016 30 845 24.95 9.3 48.7 51 -0.4 31.3
15:40 1016 30 845 24.95 9.1 48.3 52 -0.3 31.4
15:45 1016 30 845 24.95 9.5 49.1 50 -0.4 31.3
15:50 1016 30 845 24.95 9.6 49.3 48 -0.8 30.6
15:55 1016 30 845 24.95 9.9 49.9 48 -0.6 30.9
16:00 1016 30 845 24.95 9.7 49.4 51 -0.1 31.8
16:05 1016 30 845 24.95 9 48.2 51 -0.6 31
16:10 1016 30 845 24.95 9.2 48.5 49 -1 30.3
16:15 1016 30 845 24.95 9.2 48.5 51 -0.3 31.4
16:20 1016 30 845 24.95 9 48.3 51 -0.5 31.1
16:25 1016 30 845 24.95 9.1 48.3 51 -0.6 31
16:30 1016 30 845 24.95 9.3 48.8 51 -0.3 31.5
16:35 1016 30 845 24.95 9.1 48.4 51 -0.6 31
16:40 1016 30 845 24.95 9.1 48.4 52 -0.1 31.8
16:45 1016 30 845 24.95 9.3 48.8 51 -0.2 31.6
16:50 1016 30 845 24.95 9.4 49 52 0.2 32.3
16:55 1016 30 845 24.95 9.1 48.4 51 -0.5 31.1
17:00 1016 30 845 24.95 9.2 48.5 50 -0.8 30.6
17:05 1016 30 845 24.95 9.4 49 49 -0.8 30.6
17:10 1016 30 845 24.95 9.6 49.2 51 -0 32
17:15 1016 30 845 24.95 9.5 49.2 52 0.1 32.1
17:20 1016 30 845 24.95 9.4 48.9 51 -0.2 31.7
17:25 1016 30 845 24.95 9.3 48.7 54 0.6 33.1
17:30 1015 29.97 845 24.95 9.3 48.7 55 0.7 33.2
17:35 1015 29.97 845 24.95 9.2 48.5 54 0.5 32.8
17:40 1015 29.97 845 24.95 9 48.2 57 0.9 33.6
17:45 1015 29.97 845 24.95 9 48.2 57 1 33.7
17:50 1015 29.97 845 24.95 8.8 47.8 58 1 33.9
17:55 1015 29.97 845 24.95 8.6 47.5 60 1.4 34.5
18:00 1015 29.97 845 24.95 8.5 47.3 61 1.3 34.4
18:05 1015 29.97 845 24.95 8.4 47.2 60 1.2 34.2
18:10 1016 30 845 24.95 8.4 47.1 62 1.6 34.9
18:15 1015 29.97 845 24.95 8.3 46.9 63 1.7 35.1
18:20 1015 29.97 845 24.95 8.1 46.6 65 2 35.6
18:25 1015 29.97 845 24.95 8 46.4 65 1.9 35.4
18:30 1015 29.97 845 24.95 7.9 46.2 65 1.7 35.1
18:35 1015 29.97 845 24.95 7.8 46 65 1.6 34.9
18:40 1015 29.97 845 24.95 7.7 45.9 65 1.6 34.8
18:45 1015 29.97 845 24.95 7.7 45.8 66 1.8 35.2
18:50 1015 29.97 844 24.92 7.5 45.6 68 2 35.6
18:55 1015 29.97 845 24.95 7.4 45.3 70 2.2 36
19:00 1015 29.97 845 24.95 7.2 45 71 2.2 36
19:05 1015 29.97 844 24.92 7.2 44.9 70 2.1 35.7
19:10 1015 29.97 844 24.92 7.2 44.9 70 2.1 35.9
19:15 1015 29.97 845 24.95 7 44.6 70 1.9 35.4
19:20 1015 29.97 844 24.92 6.9 44.5 70 1.9 35.4
19:25 1015 29.97 844 24.92 6.9 44.3 70 1.8 35.2
19:30 1015 29.97 844 24.92 6.8 44.2 69 1.6 34.9
19:35 1015 29.97 844 24.92 6.7 44.1 69 1.6 34.8
19:40 1015 29.97 844 24.92 6.7 44.1 69 1.4 34.6
19:45 1015 29.97 844 24.92 6.7 44 70 1.7 35
19:50 1015 29.97 844 24.92 6.5 43.7 72 1.8 35.2
19:55 1015 29.97 844 24.92 6.4 43.4 73 1.8 35.3
20:00 1015 29.97 844 24.92 6.3 43.3 72 1.7 35
20:05 1015 29.97 844 24.92 6.2 43.2 73 1.7 35.1
20:10 1015 29.97 844 24.92 6.1 43.1 71 1.4 34.5
20:15 1015 29.97 844 24.92 6.1 43 72 1.4 34.5
20:20 1015 29.97 844 24.92 6.1 42.9 73 1.5 34.7
20:25 1015 29.97 844 24.92 5.9 42.7 77 2.3 36.1
20:30 1015 29.97 844 24.92 5.6 42 79 2.3 36.1
20:35 1015 29.97 844 24.92 5.4 41.8 80 2.3 36.1
20:40 1015 29.97 844 24.92 5.3 41.6 81 2.3 36.2
20:45 1015 29.97 844 24.92 5.3 41.5 81 2.3 36.2
20:50 1015 29.97 844 24.92 5.2 41.3 82 2.4 36.4
20:55 1015 29.97 844 24.92 5.1 41.2 82 2.2 36
21:00 1015 29.97 844 24.92 5.2 41.3 81 2.2 36
21:05 1015 29.97 844 24.92 5.1 41.1 82 2.2 36
21:10 1015 29.97 844 24.92 5 40.9 82 2.1 35.7
21:15 1015 29.97 844 24.92 5 41 81 2.1 35.7
21:20 1015 29.97 844 24.92 5.1 41.1 81 2 35.6
21:25 1015 29.97 844 24.92 5.1 41.1 81 2 35.7
21:30 1015 29.97 844 24.92 5.4 41.7 76 1.6 34.8
21:35 1014 29.94 844 24.92 5.8 42.4 74 1.5 34.7
21:40 1014 29.94 844 24.92 6.2 43.1 72 1.4 34.6
21:45 1014 29.94 843 24.89 6.3 43.3 71 1.4 34.6
21:50 1014 29.94 843 24.89 6.5 43.7 70 1.5 34.7
21:55 1014 29.94 843 24.89 6.4 43.5 72 1.6 35
22:00 1014 29.94 843 24.89 6.3 43.3 72 1.6 35
22:05 1014 29.94 843 24.89 6.2 43.2 72 1.6 34.9
22:10 1014 29.94 843 24.89 6.3 43.3 71 1.4 34.5
22:15 1014 29.94 843 24.89 6.4 43.5 71 1.5 34.7
22:20 1014 29.94 843 24.89 6.3 43.4 72 1.7 35
22:25 1014 29.94 843 24.89 6.2 43.1 73 1.6 34.9
22:30 1014 29.94 843 24.89 6.1 43 73 1.7 35.1
22:35 1014 29.94 843 24.89 6.1 42.9 73 1.6 34.9
22:40 1014 29.94 843 24.89 6.1 42.9 73 1.6 34.8
22:45 1014 29.94 843 24.89 6 42.9 73 1.5 34.7
22:50 1014 29.94 843 24.89 6 42.8 72 1.4 34.4
22:55 1013 29.91 843 24.89 6.1 43 72 1.4 34.5
23:00 1014 29.94 843 24.89 6.1 43 72 1.5 34.6
23:05 1014 29.94 843 24.89 6.1 42.9 72 1.4 34.5
23:10 1013 29.91 843 24.89 6.1 43 71 1.3 34.4
23:15 1013 29.91 842 24.86 6.2 43.1 70 1.2 34.2
23:20 1013 29.91 842 24.86 6.3 43.3 69 1.1 33.9
23:25 1013 29.91 842 24.86 6.4 43.6 68 1 33.7
23:30 1013 29.91 842 24.86 6.5 43.7 67 0.9 33.6
23:35 1013 29.91 842 24.86 6.6 43.8 67 0.8 33.5
23:40 1013 29.91 842 24.86 6.6 43.9 67 0.8 33.5
23:45 1013 29.91 842 24.86 6.6 43.9 66 0.7 33.2
23:50 1013 29.91 842 24.86 6.6 43.9 66 0.7 33.3
23:55 1013 29.91 842 24.86 6.6 43.9 65 0.6 33
24:00 1013 29.91 843 24.89 6.7 44 65 0.6 33